Time;durP1;ratioP1;P1;durP2;ratioP2;P2;SDS_P1;SDS_P2;PMS_P1;PMS_P2;Temp;Humidity;BMP_temperature;BMP_pressure;BME280_temperature;BME280_humidity;BME280_pressure;Samples;Min_cycle;Max_cycle;Signal;HPM_P1;HPM_P2
2022/06/02 00:01:30;;;;;;;2.57;1.70;;;;;;;;;;5037019;28;20478;-54
2022/06/02 00:04:11;;;;;;;1.73;1.13;;;;;;;;;;5021201;28;20453;-54
2022/06/02 00:06:49;;;;;;;3.20;1.40;;;;;;;;;;5040179;28;20430;-52
2022/06/02 00:09:18;;;;;;;1.53;1.30;;;;;;;;;;5052576;28;20579;-52
2022/06/02 00:12:14;;;;;;;2.13;1.47;;;;;;;;;;5049730;28;20485;-53
2022/06/02 00:14:58;;;;;;;2.10;1.50;;;;;;;;;;4996416;28;20999;-54
2022/06/02 00:17:33;;;;;;;1.40;1.10;;;;;;;;;;5039118;28;20585;-57
2022/06/02 00:20:10;;;;;;;2.00;1.40;;;;;;;;;;5023504;28;20435;-53
2022/06/02 00:22:39;;;;;;;1.90;1.27;;;;;;;;;;5045622;28;20523;-53
2022/06/02 00:25:18;;;;;;;1.60;1.20;;;;;;;;;;5032586;28;20437;-54
2022/06/02 00:28:29;;;;;;;1.50;1.10;;;;;;;;;;5037292;28;20480;-53
2022/06/02 00:31:06;;;;;;;1.50;1.10;;;;;;;;;;4993567;28;21000;-53
2022/06/02 00:33:44;;;;;;;2.80;1.57;;;;;;;;;;5031017;28;20457;-54
2022/06/02 00:36:14;;;;;;;2.03;1.43;;;;;;;;;;5038062;28;20817;-53
2022/06/02 00:38:41;;;;;;;1.50;1.20;;;;;;;;;;5013122;28;20442;-53
2022/06/02 00:41:08;;;;;;;1.87;1.40;;;;;;;;;;5033765;28;20444;-53
2022/06/02 00:43:55;;;;;;;1.70;1.33;;;;;;;;;;5039193;28;20438;-53
2022/06/02 00:46:26;;;;;;;2.97;1.77;;;;;;;;;;5030034;28;20435;-52
2022/06/02 00:48:55;;;;;;;1.80;1.20;;;;;;;;;;4973512;28;20767;-53
2022/06/02 00:51:38;;;;;;;2.57;1.30;;;;;;;;;;5017810;28;20499;-52
2022/06/02 00:57:30;;;;;;;2.70;1.40;;;;;;;;;;5021560;28;20466;-53
2022/06/02 01:00:15;;;;;;;2.00;1.37;;;;;;;;;;5008431;28;20438;-53
2022/06/02 01:03:20;;;;;;;2.70;1.20;;;;;;;;;;5022409;28;20439;-52
2022/06/02 01:06:13;;;;;;;1.90;1.50;;;;;;;;;;5023547;28;20446;-52
2022/06/02 01:08:42;;;;;;;1.60;1.20;;;;;;;;;;5010407;28;20510;-51
2022/06/02 01:11:27;;;;;;;3.23;1.40;;;;;;;;;;5027095;28;20514;-52
2022/06/02 01:14:07;;;;;;;1.67;1.23;;;;;;;;;;5035641;28;21930;-57
2022/06/02 01:16:44;;;;;;;2.40;1.37;;;;;;;;;;5016394;28;20586;-52
2022/06/02 01:19:10;;;;;;;2.93;1.43;;;;;;;;;;4990228;28;21226;-53
2022/06/02 01:21:57;;;;;;;1.53;1.10;;;;;;;;;;5019906;28;20612;-53
2022/06/02 01:24:33;;;;;;;1.80;1.40;;;;;;;;;;5009840;28;20499;-52
2022/06/02 01:27:16;;;;;;;1.50;1.40;;;;;;;;;;5020753;28;20467;-53
2022/06/02 01:29:43;;;;;;;2.43;1.13;;;;;;;;;;5023199;28;20677;-53
2022/06/02 01:32:10;;;;;;;1.70;1.30;;;;;;;;;;5023120;28;20442;-53
2022/06/02 01:34:59;;;;;;;2.27;1.27;;;;;;;;;;5020510;28;20545;-53
2022/06/02 01:37:32;;;;;;;1.60;1.30;;;;;;;;;;5022391;28;20448;-53
2022/06/02 01:40:07;;;;;;;2.17;1.40;;;;;;;;;;4999656;28;20451;-52
2022/06/02 01:42:52;;;;;;;2.83;1.60;;;;;;;;;;5021093;28;20450;-52
2022/06/02 01:45:37;;;;;;;5.03;1.60;;;;;;;;;;5017603;28;20435;-52
2022/06/02 01:48:29;;;;;;;2.10;1.70;;;;;;;;;;5014253;28;21195;-54
2022/06/02 01:50:55;;;;;;;2.80;1.77;;;;;;;;;;5034486;28;20437;-53
2022/06/02 01:56:29;;;;;;;2.83;1.30;;;;;;;;;;5012321;28;20514;-52
2022/06/02 01:58:58;;;;;;;1.47;1.20;;;;;;;;;;5002887;28;22679;-53
2022/06/02 02:01:32;;;;;;;2.03;1.33;;;;;;;;;;5032842;28;20443;-53
2022/06/02 02:04:17;;;;;;;2.57;1.50;;;;;;;;;;5017223;28;20434;-53
2022/06/02 02:07:05;;;;;;;2.00;1.40;;;;;;;;;;5023365;28;20466;-53
2022/06/02 02:09:48;;;;;;;1.77;1.47;;;;;;;;;;5035731;28;20439;-53
2022/06/02 02:12:32;;;;;;;2.03;1.40;;;;;;;;;;5021176;28;20476;-53
2022/06/02 02:15:03;;;;;;;1.40;1.23;;;;;;;;;;5002128;28;20472;-54
2022/06/02 02:17:38;;;;;;;2.77;1.53;;;;;;;;;;5016957;28;20459;-53
2022/06/02 02:20:16;;;;;;;2.53;1.50;;;;;;;;;;5004515;28;20442;-53
2022/06/02 02:22:54;;;;;;;1.60;1.40;;;;;;;;;;5020890;28;20435;-53
2022/06/02 02:25:42;;;;;;;1.80;1.47;;;;;;;;;;5018824;28;20438;-53
2022/06/02 02:28:29;;;;;;;1.80;1.20;;;;;;;;;;5008128;28;20724;-52
2022/06/02 02:31:11;;;;;;;8.63;1.50;;;;;;;;;;5014459;28;20512;-54
2022/06/02 02:33:39;;;;;;;5.73;1.93;;;;;;;;;;5021483;28;20461;-53
2022/06/02 02:36:21;;;;;;;2.10;1.50;;;;;;;;;;5022809;28;20572;-54
2022/06/02 02:39:02;;;;;;;1.70;1.20;;;;;;;;;;4990949;28;20447;-52
2022/06/02 02:41:34;;;;;;;2.47;1.27;;;;;;;;;;5014709;28;21178;-53
2022/06/02 02:44:11;;;;;;;1.97;1.20;;;;;;;;;;5014428;28;20490;-53
2022/06/02 02:46:58;;;;;;;2.80;1.57;;;;;;;;;;5022124;28;20447;-54
2022/06/02 02:49:29;;;;;;;2.13;1.77;;;;;;;;;;4997930;28;20555;-53
2022/06/02 02:51:55;;;;;;;1.53;1.20;;;;;;;;;;5021797;28;20426;-53
2022/06/02 02:54:24;;;;;;;3.43;1.10;;;;;;;;;;5016351;28;20432;-53
2022/06/02 02:56:51;;;;;;;2.60;1.40;;;;;;;;;;5014842;28;20221;-54
2022/06/02 02:59:20;;;;;;;1.40;1.17;;;;;;;;;;4997019;28;20454;-53
2022/06/02 03:01:53;;;;;;;4.03;1.73;;;;;;;;;;5019620;28;20462;-52
2022/06/02 03:04:19;;;;;;;2.50;1.27;;;;;;;;;;4982395;28;20436;-52
2022/06/02 03:06:48;;;;;;;2.40;1.73;;;;;;;;;;5018400;28;20837;-53
2022/06/02 03:09:37;;;;;;;3.20;1.87;;;;;;;;;;4991964;28;20560;-53
2022/06/02 03:12:03;;;;;;;2.53;1.20;;;;;;;;;;5013295;28;20446;-54
2022/06/02 03:14:32;;;;;;;3.20;1.27;;;;;;;;;;5012812;28;20535;-53
2022/06/02 03:17:17;;;;;;;2.70;1.53;;;;;;;;;;5023207;28;20454;-53
2022/06/02 03:19:46;;;;;;;1.60;1.40;;;;;;;;;;4983752;28;21078;-54
2022/06/02 03:22:33;;;;;;;2.90;1.50;;;;;;;;;;5016684;28;20539;-54
2022/06/02 03:25:03;;;;;;;1.40;1.30;;;;;;;;;;5020866;28;20435;-54
2022/06/02 03:27:53;;;;;;;3.80;1.77;;;;;;;;;;5024359;28;20431;-54
2022/06/02 03:30:19;;;;;;;2.93;1.30;;;;;;;;;;5034014;28;20482;-54
2022/06/02 03:33:03;;;;;;;3.53;1.80;;;;;;;;;;5017103;28;20465;-53
2022/06/02 03:35:48;;;;;;;1.87;1.43;;;;;;;;;;5014348;28;20226;-53
2022/06/02 03:38:18;;;;;;;2.70;1.60;;;;;;;;;;4985909;28;20539;-53
2022/06/02 03:41:17;;;;;;;1.67;1.40;;;;;;;;;;5012754;28;20968;-52
2022/06/02 03:43:53;;;;;;;2.67;1.63;;;;;;;;;;5021043;28;20447;-53
2022/06/02 03:46:19;;;;;;;1.73;1.33;;;;;;;;;;5016007;28;20431;-54
2022/06/02 03:49:03;;;;;;;2.17;1.43;;;;;;;;;;4985196;28;20629;-55
2022/06/02 03:51:47;;;;;;;3.10;1.47;;;;;;;;;;5022379;28;20490;-52
2022/06/02 03:54:24;;;;;;;4.37;1.80;;;;;;;;;;5012727;28;20447;-53
2022/06/02 03:56:53;;;;;;;2.30;1.33;;;;;;;;;;5036175;28;20565;-52
2022/06/02 03:59:24;;;;;;;1.70;1.40;;;;;;;;;;5021178;28;20438;-53
2022/06/02 04:02:00;;;;;;;2.57;1.37;;;;;;;;;;5015133;28;20432;-53
2022/06/02 04:04:31;;;;;;;1.40;1.17;;;;;;;;;;5019145;28;21206;-54
2022/06/02 04:07:08;;;;;;;8.17;1.43;;;;;;;;;;5022253;28;20436;-57
2022/06/02 04:09:43;;;;;;;2.20;1.77;;;;;;;;;;5001049;28;20442;-53
2022/06/02 04:15:29;;;;;;;2.40;1.60;;;;;;;;;;4973516;28;20505;-53
2022/06/02 04:17:59;;;;;;;3.73;1.50;;;;;;;;;;5023730;28;20435;-54
2022/06/02 04:20:39;;;;;;;2.70;1.87;;;;;;;;;;5033905;28;20935;-54
2022/06/02 04:23:18;;;;;;;3.70;1.23;;;;;;;;;;5004715;28;20438;-55
2022/06/02 04:25:50;;;;;;;2.07;1.47;;;;;;;;;;5016876;28;20501;-54
2022/06/02 04:28:40;;;;;;;2.37;1.30;;;;;;;;;;5015164;28;20431;-54
2022/06/02 04:31:27;;;;;;;2.23;1.37;;;;;;;;;;5013003;28;20469;-54
2022/06/02 04:34:00;;;;;;;2.23;1.50;;;;;;;;;;5023590;28;20442;-53
2022/06/02 04:36:27;;;;;;;2.10;1.50;;;;;;;;;;5021804;28;20556;-54
2022/06/02 04:39:12;;;;;;;3.47;1.53;;;;;;;;;;5022300;28;20447;-54
2022/06/02 04:41:53;;;;;;;2.50;1.67;;;;;;;;;;4990236;28;20528;-54
2022/06/02 04:44:25;;;;;;;3.13;2.07;;;;;;;;;;5015778;28;20525;-52
2022/06/02 04:47:12;;;;;;;3.10;1.80;;;;;;;;;;4976085;28;20489;-52
2022/06/02 04:49:43;;;;;;;2.00;1.70;;;;;;;;;;5012380;28;21484;-53
2022/06/02 04:52:14;;;;;;;3.53;1.53;;;;;;;;;;5039451;28;21207;-53
2022/06/02 04:54:46;;;;;;;2.07;1.27;;;;;;;;;;4989278;28;20605;-55
2022/06/02 04:57:25;;;;;;;3.70;1.63;;;;;;;;;;5012574;28;20452;-54
2022/06/02 04:59:57;;;;;;;1.43;1.33;;;;;;;;;;4997459;28;20545;-55
2022/06/02 05:02:23;;;;;;;3.17;1.40;;;;;;;;;;4990254;28;20455;-53
2022/06/02 05:04:52;;;;;;;1.87;1.43;;;;;;;;;;5010948;28;20433;-54
2022/06/02 05:07:25;;;;;;;4.17;1.70;;;;;;;;;;5014561;28;21308;-54
2022/06/02 05:10:06;;;;;;;2.63;1.70;;;;;;;;;;4983747;28;20434;-53
2022/06/02 05:12:50;;;;;;;2.70;1.80;;;;;;;;;;5010206;28;20511;-55
2022/06/02 05:15:20;;;;;;;2.53;1.93;;;;;;;;;;4996941;28;20807;-53
2022/06/02 05:17:53;;;;;;;4.20;1.50;;;;;;;;;;4993804;28;20474;-52
2022/06/02 05:20:23;;;;;;;2.80;1.80;;;;;;;;;;4951201;28;20429;-53
2022/06/02 05:23:01;;;;;;;4.33;1.60;;;;;;;;;;4993976;28;20436;-55
2022/06/02 05:25:33;;;;;;;3.40;1.50;;;;;;;;;;4965482;28;20478;-54
2022/06/02 05:28:13;;;;;;;2.40;1.60;;;;;;;;;;5016866;28;20475;-56
2022/06/02 05:30:57;;;;;;;2.03;1.80;;;;;;;;;;5019331;28;20843;-53
2022/06/02 05:33:46;;;;;;;2.20;2.00;;;;;;;;;;5006641;28;20527;-55
2022/06/02 05:36:51;;;;;;;2.17;1.80;;;;;;;;;;5015421;28;20673;-54
2022/06/02 05:39:36;;;;;;;2.93;2.30;;;;;;;;;;4967154;28;20976;-55
2022/06/02 05:42:02;;;;;;;2.63;1.80;;;;;;;;;;4996455;28;20803;-58
2022/06/02 05:44:43;;;;;;;2.13;1.80;;;;;;;;;;4986044;28;20447;-55
2022/06/02 05:47:23;;;;;;;3.70;2.27;;;;;;;;;;5007405;28;20451;-55
2022/06/02 05:50:03;;;;;;;2.57;1.90;;;;;;;;;;4998249;28;20486;-55
2022/06/02 05:52:29;;;;;;;7.57;2.57;;;;;;;;;;5016962;28;20443;-54
2022/06/02 05:55:14;;;;;;;4.07;2.20;;;;;;;;;;4966573;28;21104;-55
2022/06/02 05:57:58;;;;;;;2.37;2.00;;;;;;;;;;5019053;28;20439;-55
2022/06/02 06:00:39;;;;;;;3.83;2.07;;;;;;;;;;4991099;28;21303;-55
2022/06/02 06:03:22;;;;;;;2.67;2.10;;;;;;;;;;5025494;28;20507;-55
2022/06/02 06:05:54;;;;;;;6.20;2.17;;;;;;;;;;4971059;28;20506;-54
2022/06/02 06:08:39;;;;;;;3.13;2.00;;;;;;;;;;5011702;28;20447;-55
2022/06/02 06:11:18;;;;;;;4.20;2.33;;;;;;;;;;5006139;28;20436;-53
2022/06/02 06:14:37;;;;;;;2.03;1.73;;;;;;;;;;4984618;28;20497;-55
2022/06/02 06:17:11;;;;;;;3.43;2.03;;;;;;;;;;5011888;28;20451;-59
2022/06/02 06:19:46;;;;;;;2.13;1.70;;;;;;;;;;4994675;28;20543;-54
2022/06/02 06:22:24;;;;;;;2.60;1.83;;;;;;;;;;5009782;28;20431;-55
2022/06/02 06:25:09;;;;;;;3.80;2.03;;;;;;;;;;4973197;28;20451;-55
2022/06/02 06:28:02;;;;;;;2.73;2.27;;;;;;;;;;4989218;28;20536;-54
2022/06/02 06:30:33;;;;;;;2.50;1.93;;;;;;;;;;5007975;28;20742;-55
2022/06/02 06:33:12;;;;;;;2.10;1.90;;;;;;;;;;4993361;28;20524;-55
2022/06/02 06:35:38;;;;;;;2.00;1.80;;;;;;;;;;5012897;28;20919;-57
2022/06/02 06:38:05;;;;;;;2.33;2.03;;;;;;;;;;4974098;28;20447;-56
2022/06/02 06:41:10;;;;;;;4.60;2.30;;;;;;;;;;4988522;28;20435;-53
2022/06/02 06:43:39;;;;;;;2.80;2.17;;;;;;;;;;5003743;28;20446;-53
2022/06/02 06:46:17;;;;;;;3.77;1.93;;;;;;;;;;5000299;28;21103;-54
2022/06/02 06:48:44;;;;;;;3.17;2.17;;;;;;;;;;4971243;28;20589;-54
2022/06/02 06:51:16;;;;;;;4.33;2.10;;;;;;;;;;4989630;28;20447;-55
2022/06/02 06:53:45;;;;;;;2.50;2.03;;;;;;;;;;4968773;28;20465;-53
2022/06/02 06:56:30;;;;;;;5.83;2.13;;;;;;;;;;4987553;28;20478;-57
2022/06/02 06:59:27;;;;;;;2.67;1.60;;;;;;;;;;4974378;28;20533;-55
2022/06/02 07:02:01;;;;;;;1.97;1.60;;;;;;;;;;4986629;28;20559;-55
2022/06/02 07:05:06;;;;;;;2.63;1.50;;;;;;;;;;5005128;28;20723;-54
2022/06/02 07:08:00;;;;;;;3.83;1.47;;;;;;;;;;4971764;28;20451;-55
2022/06/02 07:10:28;;;;;;;4.63;1.80;;;;;;;;;;4986390;28;20447;-54
2022/06/02 07:13:15;;;;;;;2.80;2.10;;;;;;;;;;4959076;28;20746;-55
2022/06/02 07:15:52;;;;;;;2.80;1.60;;;;;;;;;;5012801;28;20227;-54
2022/06/02 07:18:21;;;;;;;3.20;2.03;;;;;;;;;;4982164;28;20504;-54
2022/06/02 07:20:49;;;;;;;3.13;2.40;;;;;;;;;;4988157;28;20836;-54
2022/06/02 07:23:41;;;;;;;2.47;2.00;;;;;;;;;;4968577;28;20442;-55
2022/06/02 07:26:35;;;;;;;7.53;2.13;;;;;;;;;;4982876;28;20575;-55
2022/06/02 07:29:21;;;;;;;3.73;1.90;;;;;;;;;;4975920;28;20451;-54
2022/06/02 07:32:05;;;;;;;2.47;2.00;;;;;;;;;;4976295;28;20984;-53
2022/06/02 07:34:50;;;;;;;3.50;2.10;;;;;;;;;;4996268;28;20442;-54
2022/06/02 07:37:19;;;;;;;2.63;2.13;;;;;;;;;;4971164;28;20502;-54
2022/06/02 07:40:03;;;;;;;4.80;2.00;;;;;;;;;;4990461;28;20792;-54
2022/06/02 07:42:35;;;;;;;2.23;2.00;;;;;;;;;;4980647;28;20478;-55
2022/06/02 07:45:07;;;;;;;3.57;2.50;;;;;;;;;;4988817;28;20497;-54
2022/06/02 07:47:33;;;;;;;3.03;2.13;;;;;;;;;;4970937;28;20600;-54
2022/06/02 07:49:59;;;;;;;3.40;2.30;;;;;;;;;;4994702;28;20463;-56
2022/06/02 07:52:25;;;;;;;4.50;2.60;;;;;;;;;;4964008;28;20463;-56
2022/06/02 07:54:57;;;;;;;5.73;2.10;;;;;;;;;;4990533;28;20634;-55
2022/06/02 07:57:29;;;;;;;2.13;1.87;;;;;;;;;;4960091;28;22370;-54
2022/06/02 08:00:06;;;;;;;3.80;2.00;;;;;;;;;;5000099;28;20454;-54
2022/06/02 08:02:43;;;;;;;4.03;2.40;;;;;;;;;;4963013;28;20610;-54
2022/06/02 08:05:28;;;;;;;3.73;1.90;;;;;;;;;;4992612;28;20481;-54
2022/06/02 08:08:04;;;;;;;3.03;1.73;;;;;;;;;;4977620;28;20555;-54
2022/06/02 08:10:56;;;;;;;4.03;1.83;;;;;;;;;;5007952;28;20435;-53
2022/06/02 08:13:30;;;;;;;4.37;2.13;;;;;;;;;;4983463;28;20446;-53
2022/06/02 08:16:01;;;;;;;6.30;2.10;;;;;;;;;;5012781;28;20580;-54
2022/06/02 08:18:47;;;;;;;2.93;2.57;;;;;;;;;;4976080;28;20885;-55
2022/06/02 08:21:16;;;;;;;2.80;2.50;;;;;;;;;;5013598;28;20442;-55
2022/06/02 08:23:46;;;;;;;3.63;1.90;;;;;;;;;;4993732;28;20443;-54
2022/06/02 08:26:32;;;;;;;2.17;1.97;;;;;;;;;;5000507;28;20782;-53
2022/06/02 08:29:05;;;;;;;3.30;2.50;;;;;;;;;;5003160;28;20428;-54
2022/06/02 08:31:51;;;;;;;4.00;2.00;;;;;;;;;;4999780;28;20762;-55
2022/06/02 08:34:30;;;;;;;4.80;2.33;;;;;;;;;;5017472;28;20446;-55
2022/06/02 08:37:14;;;;;;;4.67;2.03;;;;;;;;;;4968372;28;20890;-55
2022/06/02 08:39:46;;;;;;;6.30;2.20;;;;;;;;;;5013321;28;20466;-56
2022/06/02 08:42:34;;;;;;;2.33;2.00;;;;;;;;;;4992624;28;20536;-55
2022/06/02 08:45:12;;;;;;;2.30;2.10;;;;;;;;;;5012093;28;20530;-55
2022/06/02 08:48:05;;;;;;;2.70;1.67;;;;;;;;;;4986639;28;21362;-55
2022/06/02 08:50:57;;;;;;;3.17;2.07;;;;;;;;;;5013141;28;20439;-56
2022/06/02 08:53:47;;;;;;;2.17;1.80;;;;;;;;;;5000250;28;20644;-57
2022/06/02 08:56:36;;;;;;;4.80;1.97;;;;;;;;;;5006364;28;20792;-55
2022/06/02 08:59:24;;;;;;;2.33;1.80;;;;;;;;;;5014567;28;20955;-54
2022/06/02 09:01:58;;;;;;;2.43;2.20;;;;;;;;;;5008495;28;21045;-57
2022/06/02 09:04:42;;;;;;;1.93;1.73;;;;;;;;;;5012843;28;20480;-56
2022/06/02 09:07:18;;;;;;;2.40;2.10;;;;;;;;;;4989428;28;20500;-54
2022/06/02 09:09:50;;;;;;;2.83;1.70;;;;;;;;;;5031580;28;20473;-57
2022/06/02 09:12:27;;;;;;;3.43;1.90;;;;;;;;;;4974419;28;20463;-55
2022/06/02 09:15:05;;;;;;;3.33;1.83;;;;;;;;;;5014966;28;20454;-55
2022/06/02 09:17:53;;;;;;;2.53;1.97;;;;;;;;;;4996320;28;20466;-54
2022/06/02 09:20:31;;;;;;;2.67;1.90;;;;;;;;;;5014667;28;21174;-55
2022/06/02 09:22:57;;;;;;;3.73;2.37;;;;;;;;;;5014622;28;20576;-54
2022/06/02 09:25:37;;;;;;;3.30;2.20;;;;;;;;;;5014398;28;20694;-54
2022/06/02 09:28:22;;;;;;;2.47;2.10;;;;;;;;;;5010727;28;20234;-56
2022/06/02 09:31:00;;;;;;;2.57;2.37;;;;;;;;;;5016499;28;20451;-57
2022/06/02 09:33:42;;;;;;;3.23;2.47;;;;;;;;;;5023098;28;20443;-54
2022/06/02 09:36:41;;;;;;;11.30;7.60;;;;;;;;;;5017486;28;20924;-55
2022/06/02 09:39:31;;;;;;;5.93;2.67;;;;;;;;;;4990066;28;20462;-56
2022/06/02 09:42:24;;;;;;;3.60;2.50;;;;;;;;;;5013908;28;20435;-57
2022/06/02 09:45:09;;;;;;;3.80;2.60;;;;;;;;;;4970918;28;20526;-56
2022/06/02 09:47:41;;;;;;;3.50;3.20;;;;;;;;;;5017386;28;20501;-56
2022/06/02 09:50:19;;;;;;;3.53;2.20;;;;;;;;;;4993111;28;20461;-55
2022/06/02 09:53:06;;;;;;;3.60;2.20;;;;;;;;;;5013101;28;20442;-56
2022/06/02 09:55:32;;;;;;;4.07;2.63;;;;;;;;;;5011888;28;20529;-56
2022/06/02 09:58:22;;;;;;;3.97;2.30;;;;;;;;;;5015639;28;20932;-54
2022/06/02 10:00:53;;;;;;;2.90;2.30;;;;;;;;;;5001028;28;20581;-56
2022/06/02 10:03:22;;;;;;;4.50;2.50;;;;;;;;;;5011619;28;20805;-57
2022/06/02 10:05:54;;;;;;;2.57;2.27;;;;;;;;;;5013481;28;20721;-55
2022/06/02 10:08:40;;;;;;;3.17;2.73;;;;;;;;;;5010058;28;20455;-57
2022/06/02 10:11:09;;;;;;;3.40;2.83;;;;;;;;;;4993193;28;20679;-55
2022/06/02 10:13:38;;;;;;;2.87;2.37;;;;;;;;;;4994216;28;20501;-55
2022/06/02 10:16:09;;;;;;;3.30;3.00;;;;;;;;;;5013393;28;20507;-56
2022/06/02 10:18:36;;;;;;;2.70;2.50;;;;;;;;;;4967862;28;20994;-55
2022/06/02 10:21:25;;;;;;;2.67;2.43;;;;;;;;;;5011558;28;20884;-55
2022/06/02 10:23:58;;;;;;;5.00;2.80;;;;;;;;;;5007194;28;20451;-55
2022/06/02 10:26:34;;;;;;;2.00;1.80;;;;;;;;;;5009302;28;20877;-56
2022/06/02 10:29:18;;;;;;;3.90;2.40;;;;;;;;;;5013454;28;20454;-54
2022/06/02 10:31:56;;;;;;;3.27;2.50;;;;;;;;;;5014649;28;20455;-55
2022/06/02 10:34:22;;;;;;;3.60;1.97;;;;;;;;;;4990990;28;20489;-55
2022/06/02 10:37:07;;;;;;;2.87;2.27;;;;;;;;;;5015432;28;20487;-55
2022/06/02 10:39:52;;;;;;;6.30;2.27;;;;;;;;;;4995703;28;20823;-55
2022/06/02 10:42:18;;;;;;;4.03;2.77;;;;;;;;;;4995044;28;20500;-55
2022/06/02 10:45:02;;;;;;;4.67;2.63;;;;;;;;;;5010461;28;20941;-57
2022/06/02 10:47:47;;;;;;;3.53;2.50;;;;;;;;;;5004128;28;21454;-56
2022/06/02 10:50:26;;;;;;;3.30;2.70;;;;;;;;;;4964395;28;20455;-55
2022/06/02 10:53:01;;;;;;;3.90;2.77;;;;;;;;;;5007439;28;20814;-56
2022/06/02 10:55:46;;;;;;;5.47;2.40;;;;;;;;;;4992117;28;20915;-56
2022/06/02 10:58:21;;;;;;;2.97;2.50;;;;;;;;;;5013480;28;21328;-56
2022/06/02 11:01:19;;;;;;;6.00;2.90;;;;;;;;;;4979191;28;20465;-56
2022/06/02 11:04:04;;;;;;;3.83;2.20;;;;;;;;;;4973127;28;20460;-55
2022/06/02 11:06:39;;;;;;;2.83;2.30;;;;;;;;;;4983034;28;20455;-54
2022/06/02 11:09:24;;;;;;;5.10;2.50;;;;;;;;;;5012591;28;21577;-55
2022/06/02 11:11:56;;;;;;;3.10;2.00;;;;;;;;;;4984556;28;20439;-58
2022/06/02 11:14:22;;;;;;;2.80;2.10;;;;;;;;;;5008054;28;20435;-57
2022/06/02 11:17:07;;;;;;;2.87;2.33;;;;;;;;;;5010934;28;20567;-56
2022/06/02 11:19:45;;;;;;;4.30;2.67;;;;;;;;;;5014160;28;20449;-55
2022/06/02 11:22:30;;;;;;;2.73;2.27;;;;;;;;;;4996888;28;20442;-54
2022/06/02 11:25:14;;;;;;;2.83;2.53;;;;;;;;;;5012893;28;20430;-55
2022/06/02 11:28:04;;;;;;;2.87;2.30;;;;;;;;;;4983113;28;21071;-55
2022/06/02 11:30:42;;;;;;;3.70;2.30;;;;;;;;;;5030097;28;20531;-56
2022/06/02 11:33:20;;;;;;;10.20;2.53;;;;;;;;;;4983890;28;20447;-56
2022/06/02 11:35:58;;;;;;;3.27;2.40;;;;;;;;;;5007693;28;20874;-61
2022/06/02 11:38:44;;;;;;;4.23;2.70;;;;;;;;;;4991290;28;20470;-57
2022/06/02 11:41:30;;;;;;;4.43;2.43;;;;;;;;;;5011023;28;20453;-55
2022/06/02 11:43:59;;;;;;;2.50;2.00;;;;;;;;;;5009288;28;20900;-55
2022/06/02 11:46:47;;;;;;;2.10;1.83;;;;;;;;;;4997865;28;20503;-57
2022/06/02 11:49:22;;;;;;;2.53;2.00;;;;;;;;;;5000046;28;20505;-56
2022/06/02 11:52:19;;;;;;;4.53;2.30;;;;;;;;;;4978063;28;21218;-56
2022/06/02 11:54:57;;;;;;;4.23;2.97;;;;;;;;;;5004153;28;20936;-56
2022/06/02 11:57:47;;;;;;;2.90;2.23;;;;;;;;;;5005633;28;20899;-56
2022/06/02 12:00:18;;;;;;;5.90;2.30;;;;;;;;;;5011965;28;20442;-55
2022/06/02 12:02:49;;;;;;;2.67;1.97;;;;;;;;;;4987949;28;20664;-56
2022/06/02 12:05:28;;;;;;;5.23;2.40;;;;;;;;;;5011350;28;20454;-56
2022/06/02 12:08:11;;;;;;;2.77;2.00;;;;;;;;;;5006121;28;20711;-55
2022/06/02 12:10:56;;;;;;;4.60;2.50;;;;;;;;;;5012137;28;20446;-56
2022/06/02 12:13:41;;;;;;;3.33;1.90;;;;;;;;;;4986668;28;20446;-56
2022/06/02 12:16:12;;;;;;;2.73;2.07;;;;;;;;;;5014387;28;20795;-56
2022/06/02 12:18:38;;;;;;;2.87;2.07;;;;;;;;;;5004817;28;20441;-56
2022/06/02 12:21:23;;;;;;;2.10;1.73;;;;;;;;;;5010247;28;20489;-57
2022/06/02 12:24:02;;;;;;;6.13;1.90;;;;;;;;;;4984950;28;20435;-55
2022/06/02 12:26:43;;;;;;;2.60;2.13;;;;;;;;;;4996764;28;21303;-57
2022/06/02 12:29:35;;;;;;;2.03;1.83;;;;;;;;;;4986428;28;20431;-55
2022/06/02 12:32:07;;;;;;;4.17;2.37;;;;;;;;;;4976599;28;20446;-56
2022/06/02 12:34:34;;;;;;;2.40;1.83;;;;;;;;;;5006341;28;21090;-55
2022/06/02 12:37:18;;;;;;;2.93;2.10;;;;;;;;;;5004832;28;20482;-57
2022/06/02 12:40:03;;;;;;;5.10;2.13;;;;;;;;;;5004714;28;20430;-56
2022/06/02 12:42:47;;;;;;;5.27;2.20;;;;;;;;;;4982441;28;21009;-55
2022/06/02 12:45:13;;;;;;;3.13;2.53;;;;;;;;;;5013961;28;20435;-57
2022/06/02 12:50:43;;;;;;;2.97;2.20;;;;;;;;;;5006541;28;21193;-59
2022/06/02 12:53:11;;;;;;;2.40;2.20;;;;;;;;;;5013725;28;20436;-57
2022/06/02 12:55:46;;;;;;;4.47;2.20;;;;;;;;;;5001724;28;20485;-57
2022/06/02 12:58:16;;;;;;;2.30;1.97;;;;;;;;;;5015292;28;20433;-55
2022/06/02 13:00:42;;;;;;;4.03;2.00;;;;;;;;;;4977665;28;20451;-56
2022/06/02 13:03:17;;;;;;;2.70;1.87;;;;;;;;;;5010765;28;20720;-56
2022/06/02 13:05:45;;;;;;;6.10;2.30;;;;;;;;;;4993095;28;20397;-55
2022/06/02 13:08:14;;;;;;;4.73;2.50;;;;;;;;;;5015080;28;20427;-57
2022/06/02 13:10:48;;;;;;;2.80;2.23;;;;;;;;;;5011824;28;20525;-56
2022/06/02 13:13:26;;;;;;;2.73;2.27;;;;;;;;;;5016737;28;20439;-56
2022/06/02 13:16:11;;;;;;;2.57;1.87;;;;;;;;;;4996399;28;21125;-56
2022/06/02 13:18:44;;;;;;;3.80;2.50;;;;;;;;;;5031325;28;20506;-58
2022/06/02 13:21:30;;;;;;;3.17;2.63;;;;;;;;;;4985016;28;20442;-59
2022/06/02 13:24:19;;;;;;;3.40;1.80;;;;;;;;;;5018851;28;20442;-55
2022/06/02 13:26:49;;;;;;;2.20;1.70;;;;;;;;;;4990345;28;20458;-56
2022/06/02 13:29:34;;;;;;;5.80;2.30;;;;;;;;;;5014647;28;20916;-56
2022/06/02 13:32:10;;;;;;;2.80;2.10;;;;;;;;;;4970443;28;20527;-55
2022/06/02 13:35:04;;;;;;;3.30;2.13;;;;;;;;;;5014833;28;20430;-57
2022/06/02 13:37:47;;;;;;;2.47;2.10;;;;;;;;;;5007471;28;20893;-57
2022/06/02 13:40:29;;;;;;;2.13;1.90;;;;;;;;;;4999980;28;20841;-56
2022/06/02 13:43:08;;;;;;;3.13;2.10;;;;;;;;;;5015057;28;20454;-56
2022/06/02 13:45:46;;;;;;;3.00;2.23;;;;;;;;;;4988008;28;20891;-55
2022/06/02 13:48:28;;;;;;;3.10;2.57;;;;;;;;;;4991966;28;20524;-55
2022/06/02 13:51:13;;;;;;;2.87;1.90;;;;;;;;;;4995121;28;21699;-55
2022/06/02 13:57:30;;;;;;;3.20;2.40;;;;;;;;;;5001950;28;21136;-56
2022/06/02 13:59:40;;;;;;;2.40;2.17;;;;;;;;;;5018274;28;20537;-57
2022/06/02 14:02:39;;;;;;;2.40;1.90;;;;;;;;;;4999426;28;20443;-60
2022/06/02 14:05:28;;;;;;;4.17;2.43;;;;;;;;;;5003334;28;20470;-56
2022/06/02 14:08:14;;;;;;;4.63;2.50;;;;;;;;;;4993795;28;20436;-62
2022/06/02 14:10:59;;;;;;;4.00;2.27;;;;;;;;;;5010258;28;20465;-58
2022/06/02 14:13:49;;;;;;;5.53;2.53;;;;;;;;;;4995303;28;20520;-60
2022/06/02 14:16:15;;;;;;;2.40;1.90;;;;;;;;;;4995888;28;20486;-56
2022/06/02 14:18:51;;;;;;;2.60;2.40;;;;;;;;;;4983976;28;20780;-57
2022/06/02 14:21:17;;;;;;;3.10;2.77;;;;;;;;;;5012924;28;20176;-56
2022/06/02 14:23:45;;;;;;;3.27;2.30;;;;;;;;;;4987147;28;20439;-58
2022/06/02 14:26:16;;;;;;;2.13;1.93;;;;;;;;;;5011230;28;20635;-56
2022/06/02 14:28:44;;;;;;;3.50;2.53;;;;;;;;;;4985286;28;21238;-55
2022/06/02 14:31:20;;;;;;;2.90;2.57;;;;;;;;;;5014845;28;20526;-56
2022/06/02 14:33:48;;;;;;;3.00;2.40;;;;;;;;;;4961381;28;20512;-56
2022/06/02 14:36:25;;;;;;;5.03;2.83;;;;;;;;;;4982048;28;20490;-56
2022/06/02 14:39:02;;;;;;;3.10;2.30;;;;;;;;;;5010919;28;20447;-56
2022/06/02 14:41:29;;;;;;;5.30;2.70;;;;;;;;;;4987817;28;20538;-56
2022/06/02 14:44:15;;;;;;;3.80;2.40;;;;;;;;;;5014252;28;20644;-56
2022/06/02 14:46:47;;;;;;;2.77;2.30;;;;;;;;;;4989223;28;20447;-55
2022/06/02 14:49:20;;;;;;;2.70;2.50;;;;;;;;;;5013664;28;20415;-57
2022/06/02 14:51:51;;;;;;;3.27;2.37;;;;;;;;;;4988309;28;20439;-57
2022/06/02 14:54:20;;;;;;;2.43;2.23;;;;;;;;;;5010989;28;20511;-55
2022/06/02 14:56:50;;;;;;;6.13;2.10;;;;;;;;;;5009421;28;20498;-55
2022/06/02 15:02:19;;;;;;;4.23;2.50;;;;;;;;;;5017308;28;20796;-57
2022/06/02 15:04:45;;;;;;;3.47;2.37;;;;;;;;;;4970168;28;20451;-57
2022/06/02 15:07:15;;;;;;;3.30;2.93;;;;;;;;;;5012267;28;20436;-56
2022/06/02 15:09:57;;;;;;;3.17;2.23;;;;;;;;;;4987317;28;20819;-56
2022/06/02 15:12:29;;;;;;;3.80;3.20;;;;;;;;;;4989021;28;20492;-57
2022/06/02 15:15:04;;;;;;;4.43;2.50;;;;;;;;;;4975578;28;20443;-56
2022/06/02 15:17:46;;;;;;;5.30;2.50;;;;;;;;;;4986962;28;20454;-55
2022/06/02 15:20:38;;;;;;;7.30;1.97;;;;;;;;;;5009253;28;20435;-56
2022/06/02 15:23:24;;;;;;;3.47;2.13;;;;;;;;;;5002276;28;20958;-56
2022/06/02 15:25:53;;;;;;;4.83;3.70;;;;;;;;;;4985706;28;21310;-56
2022/06/02 15:28:28;;;;;;;6.53;2.37;;;;;;;;;;5012724;28;20460;-56
2022/06/02 15:31:13;;;;;;;2.80;2.40;;;;;;;;;;4983820;28;20442;-55
2022/06/02 15:33:52;;;;;;;2.93;2.60;;;;;;;;;;5014064;28;20521;-56
2022/06/02 15:36:21;;;;;;;2.60;2.30;;;;;;;;;;4986186;28;20494;-55
2022/06/02 15:38:58;;;;;;;3.60;2.90;;;;;;;;;;5017104;28;20862;-55
2022/06/02 15:41:52;;;;;;;3.53;2.77;;;;;;;;;;4998613;28;20511;-58
2022/06/02 15:44:32;;;;;;;3.38;2.20;;;;;;;;;;5008922;28;20488;-56
2022/06/02 15:47:16;;;;;;;3.07;2.77;;;;;;;;;;4993100;28;20863;-57
2022/06/02 15:50:04;;;;;;;4.30;2.43;;;;;;;;;;5009085;28;20427;-57
2022/06/02 15:52:42;;;;;;;3.30;2.43;;;;;;;;;;4985234;28;20821;-58
2022/06/02 15:55:08;;;;;;;4.50;2.63;;;;;;;;;;5012238;28;21319;-56
2022/06/02 15:57:41;;;;;;;2.77;2.33;;;;;;;;;;4992156;28;21362;-57
2022/06/02 16:00:15;;;;;;;7.07;2.60;;;;;;;;;;4978211;28;20534;-56
2022/06/02 16:03:03;;;;;;;6.63;2.37;;;;;;;;;;5008536;28;20873;-58
2022/06/02 16:05:51;;;;;;;5.50;2.67;;;;;;;;;;4983543;28;20447;-56
2022/06/02 16:08:20;;;;;;;3.13;2.80;;;;;;;;;;5013663;28;20446;-58